Terminal Aerodrome Forecast
Issued by NWS

Home | Current Version | Previous Version | Text Only | Print | Product List | Glossary Off
Versions: 1 2 3 4 5 6 7 8 9 10 11 12 13 14 15 16 17 18 19 20 21 22 23 24 25 26 27 28 29 30 31 32

778
FTUS43 KGRB 221630 AAB
TAFRHI
TAF AMD
KRHI 221630Z 2217/2312 21008KT P6SM BKN040
      TEMPO 2217/2219 2SM +TSRA BKN025 BKN040CB
     FM222000 20008KT P6SM SCT120
     FM230600 20008KT P6SM FEW200 WS020/22040KT=

USA.gov is the U.S. government's official web portal to all federal, state and local government web resources and services.